createdAt,value
2019-05-21T00:01:31.669Z,12.60
2019-05-21T00:04:00.392Z,12.62
2019-05-21T00:06:29.117Z,12.58
2019-05-21T00:08:57.911Z,12.64
2019-05-21T00:11:26.643Z,12.51
2019-05-21T00:13:55.372Z,12.43
2019-05-21T00:16:26.179Z,12.39
2019-05-21T00:18:54.896Z,12.37
2019-05-21T00:21:23.615Z,12.25
2019-05-21T00:23:52.474Z,12.17
2019-05-21T00:26:21.200Z,12.16
2019-05-21T00:29:26.330Z,12.14
2019-05-21T00:32:31.268Z,12.13
2019-05-21T00:35:43.970Z,12.07
2019-05-21T00:38:51.901Z,11.94
2019-05-21T00:41:56.011Z,11.88
2019-05-21T00:44:25.783Z,11.85
2019-05-21T00:46:54.505Z,11.77
2019-05-21T00:49:23.365Z,11.78
2019-05-21T00:52:06.168Z,11.81
2019-05-21T00:54:22.644Z,11.83
2019-05-21T00:56:51.539Z,11.76
2019-05-21T00:59:20.256Z,11.68
2019-05-21T01:01:48.988Z,11.60
2019-05-21T01:04:17.808Z,11.43
2019-05-21T01:06:46.532Z,11.33
2019-05-21T01:09:15.261Z,11.26
2019-05-21T01:11:44.160Z,11.24
2019-05-21T01:14:12.884Z,11.25
2019-05-21T01:16:41.610Z,11.26
2019-05-21T01:19:10.484Z,11.25
2019-05-21T01:21:39.212Z,11.26
2019-05-21T01:24:07.935Z,11.36
2019-05-21T01:26:36.791Z,11.28
2019-05-21T01:29:05.812Z,11.20
2019-05-21T01:31:34.528Z,11.14
2019-05-21T01:34:03.423Z,11.09
2019-05-21T01:36:32.143Z,11.04
2019-05-21T01:39:00.868Z,11.02
2019-05-21T01:41:29.641Z,11.00
2019-05-21T01:43:58.364Z,10.99
2019-05-21T01:46:27.115Z,11.03
2019-05-21T01:48:56.055Z,11.02
2019-05-21T01:51:24.779Z,11.06
2019-05-21T01:53:53.490Z,11.05
2019-05-21T01:56:22.248Z,11.08
2019-05-21T01:58:50.973Z,11.07
2019-05-21T02:01:19.694Z,11.32
2019-05-21T02:03:48.505Z,11.10
2019-05-21T02:06:17.319Z,10.84
2019-05-21T02:08:46.140Z,10.75
2019-05-21T02:11:14.937Z,10.70
2019-05-21T02:13:43.656Z,10.58
2019-05-21T02:16:12.374Z,10.43
2019-05-21T02:18:41.269Z,10.28
2019-05-21T02:21:09.965Z,10.04
2019-05-21T02:23:38.692Z,9.81
2019-05-21T02:26:07.518Z,9.81
2019-05-21T02:28:36.243Z,9.80
2019-05-21T02:31:05.080Z,9.83
2019-05-21T02:33:34.518Z,9.93
2019-05-21T02:36:03.251Z,10.06
2019-05-21T02:38:31.983Z,10.01
2019-05-21T02:41:00.802Z,9.99
2019-05-21T02:43:30.200Z,10.05
2019-05-21T02:45:58.918Z,10.09
2019-05-21T02:48:27.908Z,10.07
2019-05-21T02:50:56.633Z,10.08
2019-05-21T02:53:25.368Z,10.16
2019-05-21T02:55:54.340Z,10.26
2019-05-21T02:58:23.058Z,10.31
2019-05-21T03:00:53.359Z,10.42
2019-05-21T03:03:23.875Z,10.53
2019-05-21T03:05:52.603Z,10.46
2019-05-21T03:08:21.354Z,10.30
2019-05-21T03:10:50.214Z,10.19
2019-05-21T03:13:18.938Z,10.17
2019-05-21T03:15:47.687Z,10.26
2019-05-21T03:18:16.465Z,10.25
2019-05-21T03:20:45.195Z,10.35
2019-05-21T03:23:13.935Z,10.46
2019-05-21T03:25:42.819Z,10.49
2019-05-21T03:28:11.550Z,10.48
2019-05-21T03:30:40.285Z,10.51
2019-05-21T03:33:09.320Z,10.53
2019-05-21T03:35:38.072Z,10.55
2019-05-21T03:38:06.785Z,10.60
2019-05-21T03:40:35.756Z,10.65
2019-05-21T03:43:04.459Z,10.67
2019-05-21T03:45:33.253Z,10.72
2019-05-21T03:48:02.043Z,10.79
2019-05-21T03:50:30.781Z,10.84
2019-05-21T03:52:59.490Z,10.90
2019-05-21T03:55:28.261Z,10.96
2019-05-21T03:57:56.992Z,11.00
2019-05-21T04:00:25.720Z,11.09
2019-05-21T04:02:54.781Z,11.25
2019-05-21T04:05:25.383Z,11.35
2019-05-21T04:07:54.108Z,11.43
2019-05-21T04:10:23.076Z,11.51
2019-05-21T04:13:07.676Z,11.57
2019-05-21T04:15:40.375Z,11.70
2019-05-21T04:18:13.784Z,11.77
2019-05-21T04:20:42.501Z,11.88
2019-05-21T04:23:11.359Z,11.97
2019-05-21T04:25:40.095Z,12.03
2019-05-21T04:28:08.852Z,12.18
2019-05-21T04:30:37.739Z,12.34
2019-05-21T04:33:06.484Z,12.44
2019-05-21T04:35:35.197Z,12.52
2019-05-21T04:38:03.967Z,12.68
2019-05-21T04:40:32.707Z,12.93
2019-05-21T04:43:02.394Z,13.03
2019-05-21T04:45:31.574Z,13.10
2019-05-21T04:48:00.281Z,13.24
2019-05-21T04:50:29.023Z,13.34
2019-05-21T04:52:57.808Z,13.46
2019-05-21T04:55:26.519Z,13.64
2019-05-21T04:57:55.317Z,14.24
2019-05-21T05:00:25.350Z,14.80
2019-05-21T05:02:54.076Z,15.42
2019-05-21T05:05:22.888Z,16.03
2019-05-21T05:07:51.674Z,16.12
2019-05-21T05:10:20.534Z,16.12
2019-05-21T05:12:49.249Z,16.34
2019-05-21T05:15:18.227Z,16.63
2019-05-21T05:17:46.941Z,17.08
2019-05-21T05:20:15.820Z,17.41
2019-05-21T05:22:44.796Z,17.74
2019-05-21T05:25:14.015Z,18.02
2019-05-21T05:27:42.734Z,18.26
2019-05-21T05:30:12.100Z,18.31
2019-05-21T05:32:40.823Z,18.14
2019-05-21T05:35:09.659Z,18.23
2019-05-21T05:37:44.018Z,18.34
2019-05-21T05:40:09.295Z,18.16
2019-05-21T05:42:38.027Z,18.01
2019-05-21T05:45:08.767Z,17.80
2019-05-21T05:47:37.495Z,17.66
2019-05-21T05:50:26.360Z,17.75
2019-05-21T05:52:55.240Z,18.04
2019-05-21T05:55:24.001Z,18.48
2019-05-21T05:57:52.877Z,18.80
2019-05-21T06:00:22.117Z,19.00
2019-05-21T06:02:50.855Z,18.86
2019-05-21T06:05:21.306Z,18.84
2019-05-21T06:07:59.338Z,18.76
2019-05-21T06:10:20.492Z,18.70
2019-05-21T06:12:49.354Z,18.54
2019-05-21T06:15:18.171Z,18.52
2019-05-21T06:17:46.909Z,18.48
2019-05-21T06:20:16.318Z,18.48
2019-05-21T06:22:45.039Z,18.44
2019-05-21T06:25:13.953Z,18.71
2019-05-21T06:27:42.728Z,19.24
2019-05-21T06:30:11.760Z,19.43
2019-05-21T06:32:40.472Z,19.77
2019-05-21T06:35:09.556Z,20.21
2019-05-21T06:37:38.406Z,20.54
2019-05-21T06:40:07.687Z,20.66
2019-05-21T06:42:36.476Z,20.35
2019-05-21T06:45:06.495Z,20.89
2019-05-21T06:47:35.213Z,21.10
2019-05-21T06:50:05.504Z,21.35
2019-05-21T06:52:34.214Z,21.87
2019-05-21T06:55:02.955Z,22.44
2019-05-21T06:57:31.814Z,22.48
2019-05-21T07:00:00.526Z,22.48
2019-05-21T07:02:29.251Z,22.58
2019-05-21T07:04:58.126Z,22.98
2019-05-21T07:07:26.842Z,23.28
2019-05-21T07:09:55.556Z,23.07
2019-05-21T07:12:24.672Z,22.78
2019-05-21T07:14:53.427Z,22.67
2019-05-21T07:17:22.140Z,22.98
2019-05-21T07:19:50.986Z,22.85
2019-05-21T07:22:19.707Z,22.86
2019-05-21T07:24:48.425Z,23.17
2019-05-21T07:27:17.224Z,23.54
2019-05-21T07:29:45.944Z,23.79
2019-05-21T07:32:14.740Z,24.11
2019-05-21T07:34:43.692Z,24.38
2019-05-21T07:37:12.411Z,24.36
2019-05-21T07:39:41.128Z,24.85
2019-05-21T07:42:10.020Z,24.76
2019-05-21T07:44:38.736Z,24.62
2019-05-21T07:47:07.466Z,24.08
2019-05-21T07:49:36.339Z,24.05
2019-05-21T07:52:05.061Z,23.95
2019-05-21T07:54:33.599Z,24.07
2019-05-21T07:57:02.494Z,23.83
2019-05-21T07:59:31.206Z,23.78
2019-05-21T08:01:59.923Z,23.66
2019-05-21T08:04:28.802Z,23.55
2019-05-21T08:06:57.528Z,23.39
2019-05-21T08:09:26.240Z,23.62
2019-05-21T08:11:55.020Z,23.89
2019-05-21T08:14:23.734Z,24.15
2019-05-21T08:16:52.457Z,24.00
2019-05-21T08:19:22.641Z,24.36
2019-05-21T08:21:51.458Z,24.79
2019-05-21T08:24:20.290Z,25.44
2019-05-21T08:26:49.055Z,25.65
2019-05-21T08:29:17.775Z,25.80
2019-05-21T08:31:46.503Z,26.30
2019-05-21T08:34:15.374Z,26.55
2019-05-21T08:36:44.109Z,26.91
2019-05-21T08:39:27.699Z,27.24
2019-05-21T08:41:43.521Z,27.47
2019-05-21T08:44:12.286Z,27.32
2019-05-21T08:46:41.925Z,27.04
2019-05-21T08:49:10.880Z,27.09
2019-05-21T08:51:39.606Z,27.05
2019-05-21T08:54:08.337Z,26.75
2019-05-21T08:56:37.207Z,26.78
2019-05-21T08:59:05.932Z,27.04
2019-05-21T09:01:34.656Z,26.74
2019-05-21T09:04:03.410Z,26.90
2019-05-21T09:06:32.150Z,26.53
2019-05-21T09:09:03.853Z,27.07
2019-05-21T09:11:31.706Z,27.31
2019-05-21T09:14:02.098Z,27.20
2019-05-21T09:16:30.815Z,26.96
2019-05-21T09:18:59.708Z,27.29
2019-05-21T09:21:28.453Z,26.66
2019-05-21T09:23:57.367Z,26.25
2019-05-21T09:26:27.335Z,26.56
2019-05-21T09:28:56.027Z,26.74
2019-05-21T09:31:24.765Z,27.02
2019-05-21T09:33:53.550Z,27.54
2019-05-21T09:36:25.141Z,27.23
2019-05-21T09:38:52.812Z,27.18
2019-05-21T09:41:21.754Z,27.77
2019-05-21T09:43:50.528Z,28.00
2019-05-21T09:46:19.269Z,28.08
2019-05-21T09:48:48.035Z,27.85
2019-05-21T09:51:20.104Z,27.95
2019-05-21T09:53:47.302Z,28.07
2019-05-21T09:56:34.120Z,28.05
2019-05-21T09:59:22.627Z,27.85
2019-05-21T10:01:53.079Z,27.87
2019-05-21T10:04:21.814Z,28.21
2019-05-21T10:06:50.545Z,27.87
2019-05-21T10:09:20.872Z,27.96
2019-05-21T10:11:50.115Z,28.05
2019-05-21T10:14:18.814Z,28.24
2019-05-21T10:16:47.705Z,28.31
2019-05-21T10:19:16.536Z,28.03
2019-05-21T10:21:45.249Z,28.00
2019-05-21T10:24:14.147Z,28.33
2019-05-21T10:26:42.860Z,28.71
2019-05-21T10:29:11.683Z,28.92
2019-05-21T10:31:40.456Z,29.50
2019-05-21T10:34:12.706Z,29.97
2019-05-21T10:36:39.679Z,30.00
2019-05-21T10:39:08.704Z,30.01
2019-05-21T10:41:37.431Z,29.93
2019-05-21T10:44:06.155Z,30.14
2019-05-21T10:46:35.130Z,30.35
2019-05-21T10:49:03.951Z,30.20
2019-05-21T10:51:32.674Z,30.25
2019-05-21T10:54:01.770Z,30.31
2019-05-21T10:56:46.803Z,30.62
2019-05-21T10:59:00.994Z,30.95
2019-05-21T11:01:31.420Z,30.39
2019-05-21T11:04:07.502Z,29.95
2019-05-21T11:06:36.470Z,29.62
2019-05-21T11:09:08.970Z,29.65
2019-05-21T11:11:37.686Z,29.89
2019-05-21T11:14:06.944Z,29.79
2019-05-21T11:16:35.712Z,29.78
2019-05-21T11:19:04.522Z,30.02
2019-05-21T11:21:33.279Z,30.28
2019-05-21T11:24:02.194Z,30.38
2019-05-21T11:26:31.012Z,30.45
2019-05-21T11:29:01.099Z,30.29
2019-05-21T11:31:29.836Z,30.28
2019-05-21T11:33:58.545Z,29.85
2019-05-21T11:36:27.498Z,29.43
2019-05-21T11:38:56.224Z,29.28
2019-05-21T11:41:24.936Z,29.23
2019-05-21T11:43:53.694Z,29.23
2019-05-21T11:46:22.421Z,29.32
2019-05-21T11:48:51.169Z,29.26
2019-05-21T11:51:20.170Z,28.67
2019-05-21T11:53:48.897Z,29.05
2019-05-21T11:56:17.620Z,29.15
2019-05-21T11:58:46.398Z,29.71
2019-05-21T12:01:15.165Z,30.23
2019-05-21T12:03:44.066Z,30.78
2019-05-21T12:06:12.823Z,30.59
2019-05-21T12:08:55.521Z,30.71
2019-05-21T12:11:12.036Z,31.02
2019-05-21T12:13:40.806Z,31.23
2019-05-21T12:16:09.529Z,31.15
2019-05-21T12:18:38.245Z,30.93
2019-05-21T12:21:07.056Z,30.29
2019-05-21T12:23:35.779Z,30.14
2019-05-21T12:26:04.608Z,29.98
2019-05-21T12:28:33.449Z,30.50
2019-05-21T12:31:02.163Z,31.05
2019-05-21T12:33:34.713Z,30.93
2019-05-21T12:36:01.383Z,30.59
2019-05-21T12:38:30.112Z,29.94
2019-05-21T12:40:58.823Z,29.68
2019-05-21T12:43:27.612Z,29.14
2019-05-21T12:45:56.351Z,29.25
2019-05-21T12:48:25.063Z,29.95
2019-05-21T12:50:54.150Z,29.90
2019-05-21T12:53:22.868Z,30.09
2019-05-21T12:55:51.676Z,30.04
2019-05-21T12:58:20.499Z,29.59
2019-05-21T13:00:49.215Z,29.86
2019-05-21T13:03:17.945Z,29.64
2019-05-21T13:05:46.954Z,29.70
2019-05-21T13:08:15.684Z,29.53
2019-05-21T13:10:45.254Z,28.97
2019-05-21T13:13:14.165Z,28.29
2019-05-21T13:15:42.892Z,27.65
2019-05-21T13:18:11.596Z,26.66
2019-05-21T13:20:40.363Z,26.17
2019-05-21T13:23:09.087Z,26.14
2019-05-21T13:25:37.795Z,26.05
2019-05-21T13:28:06.767Z,25.93
2019-05-21T13:30:35.504Z,25.93
2019-05-21T13:33:04.325Z,26.04
2019-05-21T13:35:33.145Z,26.30
2019-05-21T13:38:03.339Z,26.30
2019-05-21T13:40:32.573Z,26.84
2019-05-21T13:43:01.516Z,27.96
2019-05-21T13:45:30.238Z,29.15
2019-05-21T13:47:58.980Z,29.94
2019-05-21T13:50:27.779Z,30.15
2019-05-21T13:52:56.596Z,30.71
2019-05-21T13:55:25.325Z,30.55
2019-05-21T13:57:55.566Z,30.39
2019-05-21T14:00:35.499Z,30.97
2019-05-21T14:03:04.458Z,30.80
2019-05-21T14:05:33.166Z,30.94
2019-05-21T14:08:01.888Z,30.82
2019-05-21T14:10:31.043Z,31.01
2019-05-21T14:13:01.220Z,30.73
2019-05-21T14:15:29.917Z,29.72
2019-05-21T14:18:01.950Z,29.14
2019-05-21T14:20:30.680Z,28.95
2019-05-21T14:22:59.409Z,29.16
2019-05-21T14:25:28.383Z,29.78
2019-05-21T14:27:57.091Z,29.91
2019-05-21T14:30:25.812Z,30.07
2019-05-21T14:32:57.657Z,30.45
2019-05-21T14:35:26.369Z,30.53
2019-05-21T14:37:55.088Z,30.07
2019-05-21T14:40:31.649Z,29.45
2019-05-21T14:43:00.136Z,28.73
2019-05-21T14:45:29.041Z,28.38
2019-05-21T14:47:56.330Z,28.75
2019-05-21T14:50:25.050Z,29.41
2019-05-21T14:52:53.769Z,29.33
2019-05-21T14:55:22.610Z,29.81
2019-05-21T14:57:51.368Z,29.46
2019-05-21T15:00:24.907Z,28.48
2019-05-21T15:02:53.755Z,27.73
2019-05-21T15:05:22.479Z,27.50
2019-05-21T15:07:51.365Z,27.99
2019-05-21T15:10:21.677Z,28.79
2019-05-21T15:12:50.406Z,29.01
2019-05-21T15:15:19.138Z,29.10
2019-05-21T15:17:47.891Z,29.00
2019-05-21T15:20:31.287Z,29.06
2019-05-21T15:23:00.083Z,29.03
2019-05-21T15:25:28.806Z,29.07
2019-05-21T15:27:57.527Z,28.98
2019-05-21T15:30:26.390Z,28.80
2019-05-21T15:32:55.119Z,28.83
2019-05-21T15:35:23.832Z,28.70
2019-05-21T15:37:52.683Z,28.49
2019-05-21T15:40:22.137Z,28.67
2019-05-21T15:42:53.147Z,28.33
2019-05-21T15:45:21.753Z,27.98
2019-05-21T15:47:50.464Z,27.92
2019-05-21T15:50:19.321Z,27.74
2019-05-21T15:52:48.127Z,27.71
2019-05-21T15:55:18.352Z,27.54
2019-05-21T15:57:47.080Z,27.33
2019-05-21T16:00:16.635Z,27.07
2019-05-21T16:02:45.353Z,27.07
2019-05-21T16:05:14.282Z,27.25
2019-05-21T16:07:43.141Z,27.25
2019-05-21T16:10:12.523Z,27.24
2019-05-21T16:12:41.259Z,27.16
2019-05-21T16:15:10.527Z,27.02
2019-05-21T16:17:40.714Z,26.88
2019-05-21T16:20:10.337Z,26.81
2019-05-21T16:22:39.289Z,26.86
2019-05-21T16:25:08.908Z,26.82
2019-05-21T16:27:37.629Z,26.45
2019-05-21T16:30:08.386Z,26.29
2019-05-21T16:32:37.303Z,26.30
2019-05-21T16:35:09.457Z,26.23
2019-05-21T16:37:38.415Z,26.01
2019-05-21T16:40:08.234Z,25.86
2019-05-21T16:42:37.043Z,25.65
2019-05-21T16:45:07.419Z,25.32
2019-05-21T16:47:45.920Z,25.11
2019-05-21T16:50:08.730Z,24.95
2019-05-21T16:52:38.013Z,24.79
2019-05-21T16:55:08.016Z,24.59
2019-05-21T16:57:36.736Z,24.41
2019-05-21T17:00:08.387Z,24.26
2019-05-21T17:02:37.189Z,24.13
2019-05-21T17:05:07.203Z,24.03
2019-05-21T17:07:36.058Z,23.82
2019-05-21T17:10:06.745Z,23.64
2019-05-21T17:12:35.714Z,23.47
2019-05-21T17:15:09.399Z,23.32
2019-05-21T17:17:38.115Z,23.11
2019-05-21T17:20:10.227Z,22.86
2019-05-21T17:22:38.999Z,22.68
2019-05-21T17:25:08.424Z,22.47
2019-05-21T17:27:37.243Z,22.24
2019-05-21T17:30:08.699Z,22.15
2019-05-21T17:32:37.630Z,22.03
2019-05-21T17:35:07.651Z,21.90
2019-05-21T17:37:36.504Z,21.73
2019-05-21T17:40:06.602Z,21.61
2019-05-21T17:42:35.323Z,21.41
2019-05-21T17:45:08.763Z,21.44
2019-05-21T17:47:37.593Z,21.39
2019-05-21T17:50:07.211Z,21.39
2019-05-21T17:52:36.108Z,21.23
2019-05-21T17:55:06.325Z,21.11
2019-05-21T17:57:35.657Z,20.98
2019-05-21T18:00:07.918Z,20.88
2019-05-21T18:02:36.651Z,20.77
2019-05-21T18:05:07.560Z,20.72
2019-05-21T18:07:37.416Z,20.61
2019-05-21T18:10:09.365Z,20.50
2019-05-21T18:12:39.127Z,20.43
2019-05-21T18:15:10.414Z,20.30
2019-05-21T18:17:40.567Z,20.20
2019-05-21T18:20:10.660Z,20.09
2019-05-21T18:22:40.439Z,19.98
2019-05-21T18:25:09.459Z,19.76
2019-05-21T18:27:38.638Z,19.58
2019-05-21T18:30:09.160Z,19.47
2019-05-21T18:32:39.452Z,19.41
2019-05-21T18:35:08.975Z,19.40
2019-05-21T18:37:39.254Z,19.40
2019-05-21T18:40:10.175Z,19.28
2019-05-21T18:42:38.975Z,19.21
2019-05-21T18:45:08.860Z,19.16
2019-05-21T18:47:37.584Z,19.06
2019-05-21T18:50:07.805Z,18.99
2019-05-21T18:52:36.782Z,18.95
2019-05-21T18:55:07.108Z,18.92
2019-05-21T18:57:36.231Z,18.85
2019-05-21T19:00:07.162Z,18.93
2019-05-21T19:02:35.884Z,18.91
2019-05-21T19:05:07.008Z,19.00
2019-05-21T19:07:36.314Z,18.91
2019-05-21T19:10:07.729Z,18.78
2019-05-21T19:12:38.422Z,18.56
2019-05-21T19:15:08.231Z,18.35
2019-05-21T19:17:36.996Z,18.11
2019-05-21T19:20:09.540Z,17.92
2019-05-21T19:22:38.303Z,17.81
2019-05-21T19:25:08.128Z,17.69
2019-05-21T19:27:36.845Z,17.67
2019-05-21T19:30:10.058Z,17.72
2019-05-21T19:32:38.898Z,17.82
2019-05-21T19:35:08.301Z,17.92
2019-05-21T19:37:37.095Z,17.99
2019-05-21T19:40:09.040Z,17.98
2019-05-21T19:42:53.886Z,17.97
2019-05-21T19:45:10.689Z,17.96
2019-05-21T19:47:39.456Z,17.88
2019-05-21T19:50:08.485Z,17.84
2019-05-21T19:52:37.336Z,17.85
2019-05-21T19:55:07.530Z,17.84
2019-05-21T19:57:36.857Z,17.72
2019-05-21T20:00:07.670Z,17.63
2019-05-21T20:02:36.689Z,17.42
2019-05-21T20:05:07.906Z,17.18
2019-05-21T20:07:36.893Z,16.97
2019-05-21T20:10:07.221Z,16.73
2019-05-21T20:12:36.537Z,16.52
2019-05-21T20:15:07.281Z,16.35
2019-05-21T20:17:36.806Z,16.22
2019-05-21T20:20:08.306Z,16.18
2019-05-21T20:22:37.769Z,16.09
2019-05-21T20:25:07.596Z,15.93
2019-05-21T20:27:37.107Z,15.88
2019-05-21T20:30:12.945Z,15.86
2019-05-21T20:32:40.294Z,15.83
2019-05-21T20:35:10.881Z,15.76
2019-05-21T20:37:41.446Z,15.66
2019-05-21T20:40:12.436Z,15.63
2019-05-21T20:42:41.663Z,15.59
2019-05-21T20:45:13.099Z,15.44
2019-05-21T20:47:43.784Z,15.34
2019-05-21T20:50:14.973Z,15.28
2019-05-21T20:52:45.684Z,15.29
2019-05-21T20:55:17.282Z,15.18
2019-05-21T20:57:46.091Z,15.07
2019-05-21T21:00:18.224Z,15.02
2019-05-21T21:02:47.247Z,15.00
2019-05-21T21:05:16.769Z,14.96
2019-05-21T21:07:45.647Z,14.93
2019-05-21T21:10:14.963Z,14.82
2019-05-21T21:12:44.786Z,14.83
2019-05-21T21:15:14.874Z,14.75
2019-05-21T21:17:44.192Z,14.63
2019-05-21T21:20:13.307Z,14.54
2019-05-21T21:22:42.201Z,14.49
2019-05-21T21:25:11.922Z,14.55
2019-05-21T21:27:41.357Z,14.50
2019-05-21T21:30:11.098Z,14.40
2019-05-21T21:32:40.037Z,14.47
2019-05-21T21:35:10.940Z,14.48
2019-05-21T21:37:40.198Z,14.58
2019-05-21T21:40:11.483Z,14.53
2019-05-21T21:42:41.603Z,14.48
2019-05-21T21:45:10.796Z,14.41
2019-05-21T21:47:40.813Z,14.31
2019-05-21T21:50:10.541Z,14.25
2019-05-21T21:52:39.728Z,14.26
2019-05-21T21:55:08.845Z,14.25
2019-05-21T21:57:37.563Z,14.16
2019-05-21T22:00:50.157Z,14.16
2019-05-21T22:03:20.932Z,14.14
2019-05-21T22:05:51.216Z,14.08
2019-05-21T22:08:20.061Z,14.05
2019-05-21T22:10:49.135Z,13.97
2019-05-21T22:13:17.911Z,13.87
2019-05-21T22:15:46.716Z,13.83
2019-05-21T22:18:16.101Z,13.78
2019-05-21T22:20:45.071Z,13.74
2019-05-21T22:23:13.994Z,13.73
2019-05-21T22:25:43.025Z,13.76
2019-05-21T22:28:11.898Z,13.72
2019-05-21T22:30:41.023Z,13.72
2019-05-21T22:33:09.798Z,13.72
2019-05-21T22:35:38.467Z,13.70
2019-05-21T22:38:07.222Z,13.66
2019-05-21T22:40:35.994Z,13.63
2019-05-21T22:43:04.673Z,13.66
2019-05-21T22:45:33.527Z,13.70
2019-05-21T22:48:02.347Z,13.66
2019-05-21T22:50:31.371Z,13.60
2019-05-21T22:53:00.159Z,13.42
2019-05-21T22:55:28.887Z,13.28
2019-05-21T22:57:57.995Z,13.14
2019-05-21T23:00:26.876Z,13.07
2019-05-21T23:02:55.926Z,13.01
2019-05-21T23:05:24.620Z,12.96
2019-05-21T23:07:53.383Z,12.94
2019-05-21T23:10:23.127Z,12.90
2019-05-21T23:12:52.110Z,12.86
2019-05-21T23:15:25.529Z,12.75
2019-05-21T23:17:51.637Z,12.75
2019-05-21T23:20:21.454Z,12.73
2019-05-21T23:22:52.295Z,12.68
2019-05-21T23:25:21.006Z,12.64
2019-05-21T23:27:50.100Z,12.64
2019-05-21T23:30:19.661Z,12.60
2019-05-21T23:32:48.384Z,12.61
2019-05-21T23:35:17.299Z,12.61
2019-05-21T23:37:47.698Z,12.69
2019-05-21T23:40:17.593Z,12.68
2019-05-21T23:42:47.212Z,12.65
2019-05-21T23:45:16.800Z,12.69
2019-05-21T23:47:45.511Z,12.69
2019-05-21T23:50:15.347Z,12.70
2019-05-21T23:52:45.239Z,12.68
2019-05-21T23:55:15.058Z,12.66
2019-05-21T23:57:44.980Z,12.67
